Time;durP1;ratioP1;P1;durP2;ratioP2;P2;SDS_P1;SDS_P2;PMS_P1;PMS_P2;Temp;Humidity;BMP_temperature;BMP_pressure;BME280_temperature;BME280_humidity;BME280_pressure;Samples;Min_cycle;Max_cycle;Signal;HPM_P1;HPM_P2
2023/01/16 00:02:23;;;;;;;1.48;0.70;;;18.10;48.20;;;;;;5042325;28;20153;-83
2023/01/16 00:04:50;;;;;;;2.40;0.77;;;18.10;48.20;;;;;;5042061;28;20153;-83
2023/01/16 00:07:16;;;;;;;1.27;0.88;;;18.10;48.20;;;;;;5075519;28;20164;-83
2023/01/16 00:09:41;;;;;;;0.65;0.65;;;18.00;48.20;;;;;;5075598;28;20157;-83
2023/01/16 00:12:07;;;;;;;1.65;0.80;;;18.10;48.20;;;;;;5075423;28;20149;-83
2023/01/16 00:14:33;;;;;;;1.02;0.80;;;18.10;48.20;;;;;;5075583;28;20559;-83
2023/01/16 00:16:58;;;;;;;1.33;0.70;;;18.00;48.80;;;;;;5042131;28;20160;-84
2023/01/16 00:19:24;;;;;;;0.85;0.80;;;18.10;48.90;;;;;;5058600;28;20266;-83
2023/01/16 00:21:51;;;;;;;1.40;0.82;;;18.10;48.30;;;;;;5093548;28;20641;-84
2023/01/16 00:24:16;;;;;;;1.50;0.80;;;18.10;48.20;;;;;;5075473;28;20163;-83
2023/01/16 00:26:42;;;;;;;0.95;0.60;;;18.00;48.20;;;;;;5075714;28;20144;-85
2023/01/16 00:29:08;;;;;;;1.10;0.90;;;18.00;48.30;;;;;;5075754;28;20160;-84
2023/01/16 00:31:35;;;;;;;0.98;0.70;;;18.00;48.20;;;;;;5044484;28;20169;-83
2023/01/16 00:34:02;;;;;;;1.50;0.95;;;18.10;48.30;;;;;;5063515;28;20288;-85
2023/01/16 00:36:28;;;;;;;1.02;0.80;;;18.00;48.30;;;;;;5047083;28;20619;-84
2023/01/16 00:38:56;;;;;;;0.82;0.65;;;18.00;48.30;;;;;;5063308;28;20338;-84
2023/01/16 00:41:21;;;;;;;2.35;1.02;;;18.00;48.30;;;;;;5046252;28;20624;-84
2023/01/16 00:43:47;;;;;;;0.68;0.63;;;18.00;48.30;;;;;;5042434;28;20264;-84
2023/01/16 00:46:16;;;;;;;1.98;0.93;;;18.00;48.30;;;;;;5075075;28;20157;-84
2023/01/16 00:48:41;;;;;;;1.05;0.73;;;18.00;48.40;;;;;;5075397;28;20157;-84
2023/01/16 00:51:07;;;;;;;0.80;0.77;;;18.00;48.40;;;;;;5042130;28;20160;-84
2023/01/16 00:53:33;;;;;;;1.45;0.90;;;18.00;48.40;;;;;;5041751;28;20160;-83
2023/01/16 00:55:58;;;;;;;0.80;0.80;;;18.00;48.50;;;;;;5058350;28;20153;-84
2023/01/16 00:58:24;;;;;;;1.80;0.73;;;18.00;48.50;;;;;;5058996;28;20174;-85
2023/01/16 01:00:49;;;;;;;1.02;0.70;;;18.00;48.50;;;;;;5058354;28;20266;-84
2023/01/16 01:03:15;;;;;;;1.42;0.70;;;18.00;48.50;;;;;;5074988;28;20149;-83
2023/01/16 01:05:41;;;;;;;1.02;0.63;;;18.00;48.60;;;;;;5075004;28;20240;-83
2023/01/16 01:08:07;;;;;;;1.90;0.70;;;18.00;48.50;;;;;;5058203;28;20160;-83
2023/01/16 01:10:32;;;;;;;1.90;0.80;;;17.90;48.50;;;;;;5058143;28;20164;-85
2023/01/16 01:12:59;;;;;;;0.90;0.70;;;17.90;48.50;;;;;;5041695;28;20168;-85
2023/01/16 01:15:25;;;;;;;1.55;0.80;;;18.00;48.50;;;;;;5058108;28;20179;-84
2023/01/16 01:17:50;;;;;;;1.38;1.02;;;17.90;48.50;;;;;;5043585;28;20160;-83
2023/01/16 01:20:16;;;;;;;1.08;0.70;;;18.00;49.30;;;;;;5061715;28;20270;-84
2023/01/16 01:22:44;;;;;;;1.60;0.90;;;17.90;48.60;;;;;;5062250;28;20164;-83
2023/01/16 01:25:10;;;;;;;1.10;0.70;;;17.90;48.60;;;;;;5062069;28;20153;-85
2023/01/16 01:27:36;;;;;;;0.90;0.60;;;17.90;48.60;;;;;;5045215;28;20214;-83
2023/01/16 01:30:02;;;;;;;1.02;0.70;;;17.90;48.60;;;;;;5061718;28;20161;-84
2023/01/16 01:32:28;;;;;;;1.70;0.90;;;17.90;48.70;;;;;;5078383;28;20157;-84
2023/01/16 01:34:53;;;;;;;0.70;0.60;;;17.90;48.70;;;;;;5061779;28;20236;-83
2023/01/16 01:37:20;;;;;;;2.13;0.68;;;17.90;48.70;;;;;;5061759;28;20236;-84
2023/01/16 01:39:46;;;;;;;1.60;0.70;;;17.90;48.80;;;;;;5045618;28;20243;-84
2023/01/16 01:44:56;;;;;;;1.35;0.85;;;17.80;48.80;;;;;;5096197;28;20168;-84
2023/01/16 01:47:26;;;;;;;1.77;0.95;;;17.80;48.80;;;;;;5061591;28;20255;-84
2023/01/16 01:49:52;;;;;;;1.60;0.73;;;17.90;48.90;;;;;;5044845;28;20165;-83
2023/01/16 01:52:18;;;;;;;1.40;0.70;;;17.90;48.90;;;;;;5061354;28;20533;-84
2023/01/16 01:54:54;;;;;;;0.80;0.55;;;17.80;48.90;;;;;;5044681;28;20295;-84
2023/01/16 01:57:23;;;;;;;0.70;0.70;;;17.80;48.90;;;;;;5062387;28;20203;-84
2023/01/16 02:00:05;;;;;;;2.78;0.82;;;17.80;48.90;;;;;;5061563;28;20184;-84
2023/01/16 02:02:33;;;;;;;1.23;0.70;;;17.80;48.90;;;;;;5046915;28;20175;-83
2023/01/16 02:04:59;;;;;;;1.00;0.70;;;17.80;48.80;;;;;;5061333;28;20153;-83
2023/01/16 02:07:25;;;;;;;0.98;0.70;;;17.80;48.90;;;;;;5061048;28;20157;-84
2023/01/16 02:09:53;;;;;;;2.47;0.80;;;17.80;48.90;;;;;;5044511;28;20659;-84
2023/01/16 02:12:18;;;;;;;0.70;0.68;;;17.80;49.00;;;;;;5061174;28;20156;-84
2023/01/16 02:14:45;;;;;;;1.50;0.73;;;17.80;49.10;;;;;;5077634;28;20145;-84
2023/01/16 02:20:13;;;;;;;1.50;0.80;;;17.80;49.10;;;;;;5064591;28;20251;-84
2023/01/16 02:23:08;;;;;;;0.90;0.68;;;17.80;49.10;;;;;;5045746;28;20164;-83
2023/01/16 02:26:08;;;;;;;1.63;0.68;;;17.70;49.10;;;;;;5079337;28;20168;-84
2023/01/16 02:28:54;;;;;;;0.73;0.70;;;17.80;49.10;;;;;;5094888;28;20212;-83
2023/01/16 02:31:43;;;;;;;0.93;0.75;;;17.80;49.10;;;;;;5077122;28;20573;-83
2023/01/16 02:34:30;;;;;;;1.50;0.90;;;17.80;49.10;;;;;;5061064;28;20214;-84
2023/01/16 02:37:11;;;;;;;1.23;0.80;;;17.80;49.20;;;;;;5062296;28;20222;-84
2023/01/16 02:40:08;;;;;;;1.35;0.70;;;17.70;49.20;;;;;;5045316;28;20193;-85
2023/01/16 02:42:42;;;;;;;2.10;0.93;;;17.70;49.20;;;;;;5077213;28;20168;-83
2023/01/16 02:45:35;;;;;;;0.65;0.63;;;17.70;49.20;;;;;;5060715;28;20235;-85
2023/01/16 02:48:08;;;;;;;1.33;0.73;;;17.70;49.20;;;;;;5060391;28;20251;-83
2023/01/16 02:50:52;;;;;;;1.05;0.57;;;17.70;49.20;;;;;;5044552;28;20630;-83
2023/01/16 02:53:22;;;;;;;1.10;0.82;;;17.70;49.30;;;;;;5076867;28;20239;-85
2023/01/16 02:55:52;;;;;;;0.90;0.77;;;17.80;49.40;;;;;;5060043;28;20643;-83
2023/01/16 02:58:18;;;;;;;0.85;0.60;;;17.60;49.90;;;;;;5044285;28;20251;-83
2023/01/16 03:00:53;;;;;;;1.10;0.63;;;17.70;49.30;;;;;;5060231;28;20205;-84
2023/01/16 03:03:41;;;;;;;1.23;0.70;;;17.70;49.30;;;;;;5060221;28;20148;-83
2023/01/16 03:06:23;;;;;;;1.75;0.70;;;17.70;49.20;;;;;;5059934;28;20646;-84
2023/01/16 03:09:17;;;;;;;0.63;0.55;;;17.70;49.40;;;;;;5094888;28;20239;-83
2023/01/16 03:12:08;;;;;;;0.90;0.70;;;17.70;49.40;;;;;;5076617;28;20515;-85
2023/01/16 03:14:44;;;;;;;1.17;0.90;;;17.70;49.30;;;;;;5078691;28;20619;-84
2023/01/16 03:17:20;;;;;;;0.85;0.60;;;17.70;49.40;;;;;;5045043;28;20183;-84
2023/01/16 03:20:03;;;;;;;1.25;0.80;;;17.70;49.40;;;;;;5060051;28;20212;-84
2023/01/16 03:22:40;;;;;;;1.33;0.85;;;17.70;49.40;;;;;;5076644;28;20181;-84
2023/01/16 03:25:17;;;;;;;1.08;0.80;;;17.70;49.40;;;;;;5043201;28;20542;-83
2023/01/16 03:28:07;;;;;;;1.13;0.85;;;17.70;49.50;;;;;;5043695;28;20161;-84
2023/01/16 03:30:51;;;;;;;1.25;0.70;;;17.70;49.50;;;;;;5060281;28;20168;-84
2023/01/16 03:33:44;;;;;;;1.42;0.70;;;17.70;49.50;;;;;;5059289;28;20208;-84
2023/01/16 03:36:15;;;;;;;1.52;0.60;;;17.70;49.40;;;;;;5062225;28;20688;-84
2023/01/16 03:38:42;;;;;;;1.10;0.80;;;17.70;49.50;;;;;;5059855;28;20207;-84
2023/01/16 03:41:10;;;;;;;1.17;0.80;;;17.60;49.50;;;;;;5093211;28;20145;-84
2023/01/16 03:43:37;;;;;;;0.88;0.70;;;17.70;49.50;;;;;;5059156;28;20191;-83
2023/01/16 03:46:11;;;;;;;1.50;0.77;;;17.60;49.40;;;;;;5059515;28;20157;-84
2023/01/16 03:48:50;;;;;;;1.95;0.85;;;17.60;49.50;;;;;;5059558;28;20164;-83
2023/01/16 03:51:21;;;;;;;1.38;0.65;;;17.70;49.50;;;;;;5075907;28;20184;-82
2023/01/16 03:53:50;;;;;;;1.70;0.90;;;17.70;49.50;;;;;;5042827;28;20206;-84
2023/01/16 03:56:20;;;;;;;1.45;0.70;;;17.60;49.60;;;;;;5076190;28;20153;-83
2023/01/16 03:58:46;;;;;;;1.20;0.60;;;17.60;49.60;;;;;;5059155;28;20145;-83
2023/01/16 04:01:24;;;;;;;0.88;0.63;;;17.60;49.60;;;;;;5076137;28;20157;-84
2023/01/16 04:03:58;;;;;;;0.80;0.70;;;17.60;49.60;;;;;;5043563;28;20184;-83
2023/01/16 04:06:58;;;;;;;0.98;0.70;;;17.60;49.50;;;;;;5042931;28;20639;-83
2023/01/16 04:09:41;;;;;;;1.30;0.80;;;17.60;49.60;;;;;;5093420;28;20230;-84
2023/01/16 04:12:06;;;;;;;0.80;0.65;;;17.60;49.60;;;;;;5059174;28;20206;-84
2023/01/16 04:14:33;;;;;;;1.10;0.90;;;17.60;49.60;;;;;;5075555;28;20527;-84
2023/01/16 04:17:00;;;;;;;0.68;0.68;;;17.60;49.60;;;;;;5042131;28;20196;-83
2023/01/16 04:19:25;;;;;;;1.02;0.70;;;17.60;49.60;;;;;;5058503;28;20220;-84
2023/01/16 04:21:51;;;;;;;0.68;0.60;;;17.60;49.60;;;;;;5042684;28;20165;-81
2023/01/16 04:24:16;;;;;;;0.65;0.55;;;17.70;49.70;;;;;;5042122;28;20239;-83
2023/01/16 04:26:43;;;;;;;0.82;0.70;;;17.60;49.70;;;;;;5058636;28;20240;-83
2023/01/16 04:29:09;;;;;;;0.70;0.70;;;17.60;49.70;;;;;;5058651;28;20191;-83
2023/01/16 04:31:35;;;;;;;1.45;0.70;;;17.60;49.70;;;;;;5041996;28;20619;-82
2023/01/16 04:34:02;;;;;;;1.55;0.88;;;17.60;49.70;;;;;;5041846;28;20173;-84
2023/01/16 04:36:28;;;;;;;0.50;0.50;;;17.60;49.70;;;;;;5058446;28;20255;-82
2023/01/16 04:38:56;;;;;;;0.65;0.60;;;17.60;49.70;;;;;;5041990;28;20562;-84
2023/01/16 04:41:37;;;;;;;0.75;0.70;;;17.60;49.70;;;;;;5042403;28;20207;-84
2023/01/16 04:44:04;;;;;;;1.05;0.80;;;17.60;49.80;;;;;;5060606;28;20171;-84
2023/01/16 04:46:29;;;;;;;0.77;0.70;;;17.60;49.80;;;;;;5041889;28;20157;-83
2023/01/16 04:48:56;;;;;;;1.70;0.70;;;17.60;49.80;;;;;;5075351;28;20230;-84
2023/01/16 04:51:22;;;;;;;1.08;0.70;;;17.50;49.70;;;;;;5075744;28;20196;-83
2023/01/16 04:53:48;;;;;;;0.80;0.50;;;17.60;49.80;;;;;;5079357;28;20242;-83
2023/01/16 04:56:13;;;;;;;1.60;0.70;;;17.60;49.80;;;;;;5045987;28;20176;-83
2023/01/16 04:58:39;;;;;;;1.40;0.70;;;17.60;49.80;;;;;;5045853;28;20172;-83
2023/01/16 05:01:05;;;;;;;1.00;0.60;;;17.50;49.80;;;;;;5045781;28;20192;-82
2023/01/16 05:03:30;;;;;;;1.10;0.60;;;17.60;49.80;;;;;;5045715;28;20583;-83
2023/01/16 05:05:56;;;;;;;0.60;0.60;;;17.60;49.80;;;;;;5079122;28;20532;-83
2023/01/16 05:08:25;;;;;;;1.40;0.80;;;17.60;49.80;;;;;;5045545;28;20175;-84
2023/01/16 05:10:51;;;;;;;0.90;0.80;;;17.60;49.80;;;;;;5046451;28;20182;-83
2023/01/16 05:13:17;;;;;;;1.65;0.77;;;17.60;49.80;;;;;;5045397;28;20263;-83
2023/01/16 05:15:44;;;;;;;1.73;0.90;;;17.60;49.80;;;;;;5062470;28;20156;-83
2023/01/16 05:18:11;;;;;;;1.45;0.90;;;17.60;49.80;;;;;;5045431;28;20168;-83
2023/01/16 05:20:37;;;;;;;1.05;0.80;;;17.60;49.90;;;;;;5045530;28;20228;-83
2023/01/16 05:23:03;;;;;;;2.08;0.80;;;17.60;49.90;;;;;;5062110;28;20161;-84
2023/01/16 05:25:29;;;;;;;1.00;0.60;;;17.50;49.80;;;;;;5061889;28;20168;-83
2023/01/16 05:27:55;;;;;;;1.13;0.73;;;17.60;50.50;;;;;;5061937;28;20607;-85
2023/01/16 05:30:20;;;;;;;0.93;0.70;;;17.50;49.90;;;;;;5078540;28;20168;-83
2023/01/16 05:32:48;;;;;;;0.70;0.63;;;17.50;50.00;;;;;;5062046;28;20169;-83
2023/01/16 05:35:15;;;;;;;1.10;0.68;;;17.50;50.60;;;;;;5061818;28;20156;-83
2023/01/16 05:37:41;;;;;;;1.00;0.80;;;17.50;50.00;;;;;;5062067;28;20244;-83
2023/01/16 05:40:08;;;;;;;1.15;0.70;;;17.50;49.90;;;;;;5061876;28;20196;-84
2023/01/16 05:42:33;;;;;;;1.42;0.60;;;17.60;50.00;;;;;;5044944;28;20165;-82
2023/01/16 05:44:59;;;;;;;1.20;0.70;;;17.50;50.00;;;;;;5078135;28;20171;-83
2023/01/16 05:47:25;;;;;;;0.88;0.70;;;17.50;50.00;;;;;;5061557;28;20157;-84
2023/01/16 05:49:50;;;;;;;0.60;0.60;;;17.60;50.00;;;;;;5078061;28;20157;-83
2023/01/16 05:52:16;;;;;;;0.60;0.60;;;17.50;49.90;;;;;;5061854;28;20172;-83
2023/01/16 05:54:42;;;;;;;1.45;0.73;;;17.50;50.00;;;;;;5061433;28;20163;-83
2023/01/16 05:57:08;;;;;;;0.85;0.63;;;17.50;50.00;;;;;;5078309;28;20153;-83
2023/01/16 05:59:33;;;;;;;1.17;0.70;;;17.50;50.00;;;;;;5077571;28;20267;-85
2023/01/16 06:01:59;;;;;;;0.70;0.63;;;17.50;50.10;;;;;;5044940;28;20169;-83
2023/01/16 06:04:24;;;;;;;0.90;0.80;;;17.50;50.10;;;;;;5043748;28;20168;-82
2023/01/16 06:06:50;;;;;;;1.23;0.82;;;17.50;50.10;;;;;;5078432;28;20165;-83
2023/01/16 06:09:16;;;;;;;0.80;0.73;;;17.60;50.10;;;;;;5078653;28;20168;-82
2023/01/16 06:11:42;;;;;;;1.45;0.70;;;17.50;50.00;;;;;;5061250;28;20167;-86
2023/01/16 06:14:07;;;;;;;0.60;0.60;;;17.50;50.10;;;;;;5061120;28;20206;-84
2023/01/16 06:16:33;;;;;;;0.80;0.60;;;17.50;50.10;;;;;;5044270;28;20180;-82
2023/01/16 06:18:59;;;;;;;0.63;0.55;;;17.60;50.10;;;;;;5060496;28;20192;-84
2023/01/16 06:21:24;;;;;;;0.82;0.80;;;17.60;50.00;;;;;;5077605;28;20161;-82
2023/01/16 06:23:50;;;;;;;1.58;0.60;;;17.50;49.90;;;;;;5077489;28;20234;-83
2023/01/16 06:26:16;;;;;;;1.60;0.70;;;17.60;50.00;;;;;;5044022;28;20169;-85
2023/01/16 06:28:42;;;;;;;0.70;0.60;;;17.50;50.00;;;;;;5060744;28;20164;-83
2023/01/16 06:31:07;;;;;;;0.65;0.40;;;17.50;50.10;;;;;;5043939;28;20175;-85
2023/01/16 06:33:33;;;;;;;0.98;0.60;;;17.50;49.90;;;;;;5060429;28;20169;-84
2023/01/16 06:35:59;;;;;;;1.75;0.70;;;17.60;49.90;;;;;;5060797;28;20160;-84
2023/01/16 06:38:25;;;;;;;1.38;0.70;;;17.60;50.00;;;;;;5077441;28;20161;-84
2023/01/16 06:40:55;;;;;;;1.02;0.65;;;17.50;50.00;;;;;;5060949;28;20711;-83
2023/01/16 06:43:23;;;;;;;1.23;0.73;;;17.50;50.10;;;;;;5062115;28;20164;-83
2023/01/16 06:45:48;;;;;;;0.77;0.65;;;17.50;50.00;;;;;;5045240;28;20634;-83
2023/01/16 06:48:15;;;;;;;1.58;0.80;;;17.50;50.10;;;;;;5061427;28;20226;-85
2023/01/16 06:50:40;;;;;;;1.20;0.65;;;17.50;50.10;;;;;;5045925;28;20229;-83
2023/01/16 06:53:07;;;;;;;0.52;0.50;;;17.50;50.10;;;;;;5049308;28;20267;-84
2023/01/16 06:55:33;;;;;;;0.80;0.57;;;17.50;50.10;;;;;;5050362;28;20191;-84
2023/01/16 06:57:58;;;;;;;1.67;0.70;;;17.60;49.90;;;;;;5065921;28;20181;-83
2023/01/16 07:00:25;;;;;;;1.77;0.60;;;17.60;50.10;;;;;;5064643;28;20553;-82
2023/01/16 07:02:54;;;;;;;2.15;0.73;;;17.60;50.10;;;;;;5061148;28;20198;-83
2023/01/16 07:05:20;;;;;;;1.35;0.88;;;17.60;49.90;;;;;;5095853;28;20235;-82
2023/01/16 07:07:46;;;;;;;2.15;0.82;;;17.60;49.90;;;;;;5045002;28;20173;-83
2023/01/16 07:10:12;;;;;;;2.03;0.77;;;17.60;49.90;;;;;;5061228;28;20151;-84
2023/01/16 07:12:45;;;;;;;1.60;0.57;;;17.60;49.80;;;;;;5044288;28;20176;-84
2023/01/16 07:23:46;;;;;;;0.73;0.60;;;17.60;49.90;;;;;;4982781;28;20180;-85
2023/01/16 07:30:08;;;;;;;2.08;0.70;;;17.70;49.80;;;;;;4960148;29;20688;-88
2023/01/16 07:32:44;;;;;;;2.17;0.43;;;17.70;49.70;;;;;;4885922;29;20642;-83
2023/01/16 07:35:15;;;;;;;2.83;1.00;;;17.80;49.60;;;;;;4926470;29;20636;-86
2023/01/16 07:38:02;;;;;;;3.47;0.60;;;17.90;49.40;;;;;;4925931;29;20613;-84
2023/01/16 07:40:56;;;;;;;1.20;0.93;;;17.90;49.20;;;;;;4941716;29;20230;-87
2023/01/16 07:55:08;;;;;;;3.60;0.70;;;18.10;48.70;;;;;;5262675;22;20234;-85
2023/01/16 07:58:03;;;;;;;1.58;0.60;;;18.20;48.60;;;;;;4982620;28;20204;-85
2023/01/16 08:00:34;;;;;;;0.95;0.52;;;18.20;48.80;;;;;;4944170;29;20280;-85
2023/01/16 08:03:09;;;;;;;2.17;0.68;;;18.20;48.90;;;;;;4945313;29;20305;-87
2023/01/16 08:06:24;;;;;;;2.40;0.50;;;18.20;48.90;;;;;;4928806;29;20188;-85
2023/01/16 08:09:28;;;;;;;;;;;;;;;;;;;;;
2023/01/16 08:12:17;;;;;;;1.25;0.70;;;18.20;48.90;;;;;;4847144;29;20279;-86
2023/01/16 08:14:59;;;;;;;2.10;0.60;;;18.30;48.70;;;;;;4827283;29;20190;-87
2023/01/16 08:17:42;;;;;;;3.50;0.65;;;18.20;48.80;;;;;;4816528;29;20722;-86
2023/01/16 08:20:44;;;;;;;1.77;0.50;;;18.20;48.90;;;;;;4819194;29;20282;-84
2023/01/16 08:23:20;;;;;;;1.40;0.55;;;18.30;48.90;;;;;;4789038;30;20191;-85
2023/01/16 08:29:42;;;;;;;1.25;0.75;;;18.30;48.80;;;;;;4800417;29;20239;-85
2023/01/16 08:33:45;;;;;;;1.65;0.60;;;18.30;48.80;;;;;;4791192;29;20270;-85
2023/01/16 08:36:30;;;;;;;0.55;0.40;;;18.20;48.80;;;;;;4729342;30;20314;-86
2023/01/16 08:39:01;;;;;;;2.92;0.50;;;18.30;48.80;;;;;;4699592;30;20182;-85
2023/01/16 08:56:22;;;;;;;;;;;;;;;;;;;;;
2023/01/16 08:59:10;;;;;;;2.20;0.60;;;18.50;48.30;;;;;;4740265;30;20246;-84
2023/01/16 09:02:19;;;;;;;2.10;0.70;;;18.50;48.00;;;;;;4773036;30;20183;-85
2023/01/16 09:05:00;;;;;;;;;;;;;;;;;;;;;
2023/01/16 09:08:10;;;;;;;2.55;0.52;;;18.50;47.90;;;;;;4772793;30;20255;-84
2023/01/16 09:13:48;;;;;;;1.75;0.50;;;18.60;48.00;;;;;;4753983;30;20193;-84
2023/01/16 09:20:45;;;;;;;3.80;0.70;;;18.60;48.70;;;;;;4833086;29;20205;-84
2023/01/16 09:23:22;;;;;;;1.23;0.50;;;18.60;48.20;;;;;;4813741;29;20190;-83
2023/01/16 09:26:19;;;;;;;1.65;0.60;;;18.60;48.50;;;;;;4826363;29;20651;-85
2023/01/16 09:28:50;;;;;;;1.40;0.50;;;18.60;48.60;;;;;;4805394;29;20701;-84
2023/01/16 10:01:26;;;;;;;3.25;0.80;;;18.70;49.10;;;;;;4722555;30;20225;-83
2023/01/16 10:04:26;;;;;;;2.20;0.52;;;18.70;49.20;;;;;;4725176;30;20221;-84
2023/01/16 10:07:19;;;;;;;3.55;0.50;;;18.70;49.20;;;;;;4691786;30;20191;-83
2023/01/16 10:13:41;;;;;;;4.70;0.63;;;18.80;49.10;;;;;;4824467;29;20278;-85
2023/01/16 10:16:27;;;;;;;3.30;0.77;;;18.80;49.10;;;;;;4873220;29;20184;-83
2023/01/16 10:19:32;;;;;;;5.00;0.88;;;18.80;49.20;;;;;;4849824;29;20304;-83
2023/01/16 10:36:36;;;;;;;2.53;0.60;;;18.80;49.20;;;;;;4788647;29;20215;-84
2023/01/16 10:53:00;;;;;;;;;;;;;;;;;;;;;
2023/01/16 10:55:51;;;;;;;2.20;0.40;;;18.90;48.90;;;;;;4754352;30;20224;-86
2023/01/16 11:02:15;;;;;;;1.73;0.40;;;18.90;48.60;;;;;;4754327;30;20196;-87
2023/01/16 11:04:54;;;;;;;3.38;0.70;;;19.00;48.50;;;;;;4755079;30;20215;-86
2023/01/16 11:07:30;;;;;;;1.23;0.60;;;19.00;48.50;;;;;;4782928;30;20192;-85
2023/01/16 11:10:00;;;;;;;4.90;1.17;;;18.90;48.50;;;;;;4782088;30;20193;-86
2023/01/16 11:18:29;;;;;;;3.47;0.50;;;18.90;48.50;;;;;;4818596;29;20674;-86
2023/01/16 11:21:26;;;;;;;3.72;0.50;;;18.90;48.40;;;;;;4820143;29;20222;-85
2023/01/16 11:24:19;;;;;;;1.80;0.50;;;18.80;48.40;;;;;;4800495;29;20183;-84
2023/01/16 11:26:54;;;;;;;1.92;0.40;;;18.90;48.30;;;;;;4793240;29;20194;-84
2023/01/16 11:29:23;;;;;;;0.82;0.40;;;18.90;48.20;;;;;;4821578;29;20600;-84
2023/01/16 11:32:08;;;;;;;1.08;0.47;;;18.90;48.00;;;;;;4823226;29;20186;-85
2023/01/16 11:34:34;;;;;;;1.17;0.40;;;18.90;48.00;;;;;;4752978;30;20208;-84
2023/01/16 11:37:10;;;;;;;1.77;0.40;;;18.90;48.00;;;;;;4754283;30;20188;-85
2023/01/16 11:39:36;;;;;;;2.80;0.40;;;19.00;47.80;;;;;;4775707;29;20707;-85
2023/01/16 11:48:22;;;;;;;1.48;0.40;;;19.00;47.60;;;;;;4809558;29;20269;-86
2023/01/16 11:50:58;;;;;;;2.28;0.50;;;18.90;47.60;;;;;;4796049;29;20202;-85
2023/01/16 11:53:32;;;;;;;0.85;0.55;;;19.00;47.50;;;;;;4822865;29;20186;-86
2023/01/16 11:56:32;;;;;;;2.17;0.40;;;19.00;47.50;;;;;;4807990;29;20686;-85
2023/01/16 11:59:36;;;;;;;2.05;0.40;;;19.00;47.50;;;;;;4823075;29;20189;-86
2023/01/16 12:06:06;;;;;;;1.67;0.43;;;19.00;47.50;;;;;;4781200;30;20179;-85
2023/01/16 12:08:59;;;;;;;1.13;0.40;;;18.90;47.40;;;;;;4780515;29;20659;-85
2023/01/16 12:11:53;;;;;;;1.15;0.30;;;18.90;47.40;;;;;;4725604;30;20234;-85
2023/01/16 12:15:01;;;;;;;0.30;0.20;;;18.90;47.30;;;;;;4763963;30;20600;-85
2023/01/16 12:17:54;;;;;;;1.52;0.50;;;18.90;47.20;;;;;;4782997;30;20196;-86
2023/01/16 12:21:03;;;;;;;1.17;0.40;;;18.90;47.10;;;;;;4771822;30;20311;-86
2023/01/16 12:23:45;;;;;;;0.65;0.40;;;19.00;47.10;;;;;;4786501;29;20224;-85
2023/01/16 12:26:39;;;;;;;1.15;0.50;;;19.00;47.00;;;;;;4778087;29;20246;-86
2023/01/16 12:29:21;;;;;;;2.70;0.50;;;19.00;46.90;;;;;;4776614;29;20218;-85
2023/01/16 12:32:27;;;;;;;0.30;0.30;;;19.00;46.90;;;;;;4830378;29;20553;-84
2023/01/16 12:37:58;;;;;;;0.40;0.25;;;19.00;46.90;;;;;;4803590;29;20190;-85
2023/01/16 12:40:51;;;;;;;1.00;0.40;;;19.10;46.60;;;;;;4785733;29;20737;-85
2023/01/16 12:43:33;;;;;;;0.90;0.35;;;19.10;46.40;;;;;;4805278;29;20187;-84
2023/01/16 12:46:08;;;;;;;1.20;0.30;;;19.10;46.40;;;;;;4789502;29;20277;-85
2023/01/16 12:49:08;;;;;;;1.20;0.50;;;19.10;46.40;;;;;;4782839;29;20283;-86
2023/01/16 12:51:52;;;;;;;1.80;0.40;;;19.10;46.30;;;;;;4754262;30;20572;-85
2023/01/16 12:54:52;;;;;;;1.02;0.35;;;19.10;46.30;;;;;;4786616;29;20226;-83
2023/01/16 12:57:44;;;;;;;0.30;0.30;;;19.10;46.00;;;;;;4820385;29;20193;-83
2023/01/16 13:00:21;;;;;;;0.68;0.32;;;19.10;46.20;;;;;;4861393;29;20221;-85
2023/01/16 13:03:15;;;;;;;0.47;0.40;;;19.00;46.30;;;;;;4860467;29;20189;-84
2023/01/16 13:05:41;;;;;;;0.85;0.55;;;19.00;47.10;;;;;;4863208;29;20216;-84
2023/01/16 13:08:34;;;;;;;0.50;0.38;;;18.90;46.50;;;;;;4854397;29;20218;-84
2023/01/16 13:13:52;;;;;;;0.60;0.47;;;18.80;46.40;;;;;;4861457;29;20276;-84
2023/01/16 13:16:23;;;;;;;0.68;0.32;;;18.80;46.40;;;;;;4899653;29;20176;-84
2023/01/16 13:18:53;;;;;;;0.38;0.30;;;18.80;46.40;;;;;;4899412;29;20183;-84
2023/01/16 13:21:20;;;;;;;1.95;0.40;;;18.90;46.30;;;;;;4899119;29;20191;-85
2023/01/16 13:23:52;;;;;;;0.30;0.30;;;18.90;46.10;;;;;;4899162;29;20191;-85
2023/01/16 13:26:18;;;;;;;0.65;0.30;;;18.90;46.00;;;;;;4899207;29;20254;-84
2023/01/16 13:28:55;;;;;;;2.35;0.50;;;18.90;46.00;;;;;;4899437;29;20686;-86
2023/01/16 13:31:37;;;;;;;0.30;0.30;;;18.90;46.00;;;;;;4899256;29;20183;-86
2023/01/16 13:34:12;;;;;;;0.93;0.40;;;18.90;45.80;;;;;;4917903;29;20629;-85
2023/01/16 13:37:11;;;;;;;1.60;0.30;;;19.00;45.70;;;;;;4902569;29;20185;-86
2023/01/16 13:40:12;;;;;;;0.70;0.43;;;18.90;45.70;;;;;;4907642;29;20224;-84
2023/01/16 13:42:39;;;;;;;0.70;0.30;;;19.00;45.70;;;;;;4922306;29;20638;-84
2023/01/16 13:47:47;;;;;;;0.57;0.30;;;19.00;45.60;;;;;;4976019;28;20181;-85
2023/01/16 13:50:34;;;;;;;0.82;0.40;;;19.00;45.40;;;;;;4989674;28;20191;-85
2023/01/16 13:53:00;;;;;;;0.20;0.20;;;19.10;45.30;;;;;;4960860;29;20189;-86
2023/01/16 13:55:40;;;;;;;0.40;0.30;;;19.00;45.40;;;;;;4971982;28;20687;-86
2023/01/16 13:58:39;;;;;;;1.42;0.30;;;19.00;45.50;;;;;;4952595;28;20209;-86
2023/01/16 14:01:44;;;;;;;0.52;0.30;;;19.00;45.50;;;;;;4920600;29;20687;-85
2023/01/16 14:04:31;;;;;;;0.70;0.40;;;19.10;45.40;;;;;;4941728;28;20647;-85
2023/01/16 14:11:10;;;;;;;0.40;0.30;;;19.10;45.20;;;;;;4976380;28;20184;-87
2023/01/16 14:13:40;;;;;;;0.57;0.40;;;19.00;45.30;;;;;;4941855;29;20186;-86
2023/01/16 14:16:31;;;;;;;1.30;0.60;;;18.90;45.50;;;;;;4956035;29;20187;-86
2023/01/16 14:19:32;;;;;;;0.73;0.30;;;18.90;45.60;;;;;;4940440;29;20218;-83
2023/01/16 16:38:48;;;;;;;7.28;1.23;;;18.90;45.70;;;;;;4886895;29;20191;-83
2023/01/16 16:45:21;;;;;;;6.70;0.95;;;19.00;45.80;;;;;;4848811;29;20197;-84
2023/01/16 16:48:07;;;;;;;3.65;0.80;;;19.00;46.00;;;;;;4812226;29;20680;-84
2023/01/16 16:50:41;;;;;;;6.25;0.90;;;19.10;46.30;;;;;;4814102;29;20738;-85
2023/01/16 16:53:16;;;;;;;7.53;0.60;;;19.10;46.40;;;;;;4813056;29;20218;-84
2023/01/16 16:55:55;;;;;;;5.82;1.20;;;19.10;46.20;;;;;;4812969;29;20258;-83
2023/01/16 16:58:27;;;;;;;5.88;0.80;;;19.10;46.60;;;;;;4777556;30;20256;-84
2023/01/16 17:01:15;;;;;;;5.35;0.90;;;19.10;46.60;;;;;;4779867;29;20724;-84
2023/01/16 17:03:55;;;;;;;11.00;0.90;;;19.10;46.90;;;;;;4742986;30;20189;-85
2023/01/16 17:07:23;;;;;;;;;;;;;;;;;;;;;
2023/01/16 17:10:12;;;;;;;6.75;1.08;;;19.10;47.40;;;;;;4739023;30;20273;-84
2023/01/16 17:17:10;;;;;;;;;;;;;;;;;;;;;
2023/01/16 17:19:39;;;;;;;12.88;1.15;;;19.10;47.30;;;;;;4799119;30;20319;-83
2023/01/16 17:29:42;;;;;;;9.25;1.00;;;19.00;47.50;;;;;;4789316;29;20765;-85
2023/01/16 17:33:02;;;;;;;;;;;;;;;;;;;;;
2023/01/16 18:07:22;;;;;;;8.35;1.20;;;19.20;47.30;;;;;;6136993;23;20254;-84
2023/01/16 18:09:51;;;;;;;7.10;1.27;;;19.20;47.60;;;;;;6051908;23;20208;-85
2023/01/16 19:03:59;;;;;;;5.93;0.90;;;19.10;47.30;;;;;;5986737;23;20205;-85
2023/01/16 19:06:55;;;;;;;8.75;1.13;;;19.10;47.10;;;;;;5875606;24;20617;-86
2023/01/16 19:09:24;;;;;;;4.68;0.95;;;19.10;47.10;;;;;;5852844;24;20269;-85
2023/01/16 19:12:02;;;;;;;6.13;1.52;;;19.00;46.80;;;;;;5879066;24;20174;-84
2023/01/16 19:14:28;;;;;;;5.82;1.00;;;19.10;46.80;;;;;;5818631;24;20167;-85
2023/01/16 19:16:55;;;;;;;3.40;1.35;;;19.00;46.80;;;;;;5903932;24;20152;-87
2023/01/16 19:19:29;;;;;;;5.20;1.20;;;19.00;46.90;;;;;;5942259;24;20172;-86
2023/01/16 19:22:06;;;;;;;4.28;1.27;;;19.00;46.70;;;;;;5906528;24;20261;-84
2023/01/16 19:24:35;;;;;;;11.75;1.48;;;19.00;46.90;;;;;;5844337;24;20198;-85
2023/01/16 19:27:04;;;;;;;5.43;1.10;;;19.00;46.80;;;;;;5822546;24;20166;-85
2023/01/16 19:33:01;;;;;;;;;;;;;;;;;;;;;
2023/01/16 19:35:54;;;;;;;2.75;1.10;;;19.00;46.50;;;;;;5719341;25;20694;-86
2023/01/16 19:38:34;;;;;;;3.65;1.33;;;19.00;46.50;;;;;;5740669;24;20175;-86
2023/01/16 19:46:41;;;;;;;4.50;1.10;;;19.00;46.90;;;;;;5724896;25;20163;-86
2023/01/16 19:46:41;;;;;;;3.47;0.93;;;19.00;46.40;;;;;;5827475;24;20154;-87
2023/01/16 19:52:33;;;;;;;4.47;0.98;;;19.00;46.20;;;;;;5802553;24;20216;-87
2023/01/16 19:55:19;;;;;;;5.75;1.10;;;19.00;46.30;;;;;;5758973;24;20191;-86
2023/01/16 19:57:45;;;;;;;4.70;1.17;;;19.00;46.40;;;;;;5735359;25;20528;-86
2023/01/16 20:00:31;;;;;;;8.07;1.58;;;19.00;46.20;;;;;;5697731;25;20208;-86
2023/01/16 20:02:57;;;;;;;5.53;1.33;;;19.00;46.30;;;;;;5718489;25;20228;-84
2023/01/16 20:05:28;;;;;;;4.88;1.10;;;18.90;46.30;;;;;;5703449;25;20796;-85
2023/01/16 20:07:55;;;;;;;9.00;1.20;;;18.90;46.20;;;;;;5777244;24;20164;-85
2023/01/16 20:10:35;;;;;;;3.95;1.23;;;18.90;46.10;;;;;;5850281;24;20161;-86
2023/01/16 20:13:05;;;;;;;5.32;1.40;;;18.90;46.70;;;;;;5897936;24;20528;-86
2023/01/16 20:15:36;;;;;;;3.95;1.38;;;18.90;46.00;;;;;;5908448;24;20179;-86